sensor_id;sensor_type;location;lat;lon;timestamp;P1;durP1;ratioP1;P2;durP2;ratioP2
17784;SDS011;9016;53.582;10.062;2023-05-20T00:00:52;0.20;;;0.20;;
17784;SDS011;9016;53.582;10.062;2023-05-20T00:03:20;0.20;;;0.20;;
17784;SDS011;9016;53.582;10.062;2023-05-20T00:05:48;0.20;;;0.20;;
17784;SDS011;9016;53.582;10.062;2023-05-20T00:08:17;0.20;;;0.20;;
17784;SDS011;9016;53.582;10.062;2023-05-20T00:10:47;0.30;;;0.30;;
17784;SDS011;9016;53.582;10.062;2023-05-20T00:13:16;0.30;;;0.30;;
17784;SDS011;9016;53.582;10.062;2023-05-20T00:15:44;0.30;;;0.30;;
17784;SDS011;9016;53.582;10.062;2023-05-20T00:18:13;0.20;;;0.20;;
17784;SDS011;9016;53.582;10.062;2023-05-20T00:20:41;0.20;;;0.20;;
17784;SDS011;9016;53.582;10.062;2023-05-20T00:23:14;0.20;;;0.20;;
17784;SDS011;9016;53.582;10.062;2023-05-20T00:25:42;0.20;;;0.20;;
17784;SDS011;9016;53.582;10.062;2023-05-20T00:28:12;0.20;;;0.20;;
17784;SDS011;9016;53.582;10.062;2023-05-20T00:30:40;0.20;;;0.20;;
17784;SDS011;9016;53.582;10.062;2023-05-20T00:33:08;0.30;;;0.30;;
17784;SDS011;9016;53.582;10.062;2023-05-20T00:35:39;0.20;;;0.20;;
17784;SDS011;9016;53.582;10.062;2023-05-20T00:38:07;0.20;;;0.20;;
17784;SDS011;9016;53.582;10.062;2023-05-20T00:40:35;0.20;;;0.20;;
17784;SDS011;9016;53.582;10.062;2023-05-20T00:43:04;0.20;;;0.20;;
17784;SDS011;9016;53.582;10.062;2023-05-20T00:45:33;0.20;;;0.20;;
17784;SDS011;9016;53.582;10.062;2023-05-20T00:48:02;0.30;;;0.30;;
17784;SDS011;9016;53.582;10.062;2023-05-20T00:50:31;0.20;;;0.20;;
17784;SDS011;9016;53.582;10.062;2023-05-20T00:52:59;0.30;;;0.30;;
17784;SDS011;9016;53.582;10.062;2023-05-20T00:55:28;0.20;;;0.20;;
17784;SDS011;9016;53.582;10.062;2023-05-20T00:57:56;0.20;;;0.20;;
17784;SDS011;9016;53.582;10.062;2023-05-20T01:00:25;0.20;;;0.20;;
17784;SDS011;9016;53.582;10.062;2023-05-20T01:02:55;0.20;;;0.20;;
17784;SDS011;9016;53.582;10.062;2023-05-20T01:05:23;0.30;;;0.30;;
17784;SDS011;9016;53.582;10.062;2023-05-20T01:07:51;0.20;;;0.20;;
17784;SDS011;9016;53.582;10.062;2023-05-20T01:10:20;0.30;;;0.30;;
17784;SDS011;9016;53.582;10.062;2023-05-20T01:12:53;0.30;;;0.30;;
17784;SDS011;9016;53.582;10.062;2023-05-20T01:15:24;0.20;;;0.20;;
17784;SDS011;9016;53.582;10.062;2023-05-20T01:17:59;0.20;;;0.20;;
17784;SDS011;9016;53.582;10.062;2023-05-20T01:20:31;0.30;;;0.30;;
17784;SDS011;9016;53.582;10.062;2023-05-20T01:23:01;0.20;;;0.20;;
17784;SDS011;9016;53.582;10.062;2023-05-20T01:25:30;0.30;;;0.30;;
17784;SDS011;9016;53.582;10.062;2023-05-20T01:27:58;0.27;;;0.27;;
17784;SDS011;9016;53.582;10.062;2023-05-20T01:30:28;0.20;;;0.20;;
17784;SDS011;9016;53.582;10.062;2023-05-20T01:33:04;0.20;;;0.20;;
17784;SDS011;9016;53.582;10.062;2023-05-20T01:35:37;0.30;;;0.30;;
17784;SDS011;9016;53.582;10.062;2023-05-20T01:38:08;0.20;;;0.20;;
17784;SDS011;9016;53.582;10.062;2023-05-20T01:40:38;0.30;;;0.30;;
17784;SDS011;9016;53.582;10.062;2023-05-20T01:43:07;0.30;;;0.30;;
17784;SDS011;9016;53.582;10.062;2023-05-20T01:45:36;0.30;;;0.30;;
17784;SDS011;9016;53.582;10.062;2023-05-20T01:48:05;0.30;;;0.30;;
17784;SDS011;9016;53.582;10.062;2023-05-20T01:50:34;0.20;;;0.20;;
17784;SDS011;9016;53.582;10.062;2023-05-20T01:53:02;0.30;;;0.30;;
17784;SDS011;9016;53.582;10.062;2023-05-20T01:55:35;0.30;;;0.30;;
17784;SDS011;9016;53.582;10.062;2023-05-20T01:58:03;0.20;;;0.20;;
17784;SDS011;9016;53.582;10.062;2023-05-20T02:00:31;0.23;;;0.23;;
17784;SDS011;9016;53.582;10.062;2023-05-20T02:03:03;0.20;;;0.20;;
17784;SDS011;9016;53.582;10.062;2023-05-20T02:05:31;0.20;;;0.20;;
17784;SDS011;9016;53.582;10.062;2023-05-20T02:07:59;0.30;;;0.30;;
17784;SDS011;9016;53.582;10.062;2023-05-20T02:10:27;0.20;;;0.20;;
17784;SDS011;9016;53.582;10.062;2023-05-20T02:12:57;0.20;;;0.20;;
17784;SDS011;9016;53.582;10.062;2023-05-20T02:15:25;0.20;;;0.20;;
17784;SDS011;9016;53.582;10.062;2023-05-20T02:17:53;0.20;;;0.20;;
17784;SDS011;9016;53.582;10.062;2023-05-20T02:20:23;0.20;;;0.20;;
17784;SDS011;9016;53.582;10.062;2023-05-20T02:22:51;0.30;;;0.30;;
17784;SDS011;9016;53.582;10.062;2023-05-20T02:25:20;0.30;;;0.30;;
17784;SDS011;9016;53.582;10.062;2023-05-20T02:27:48;0.20;;;0.20;;
17784;SDS011;9016;53.582;10.062;2023-05-20T02:30:17;0.20;;;0.20;;
17784;SDS011;9016;53.582;10.062;2023-05-20T02:32:46;0.20;;;0.20;;
17784;SDS011;9016;53.582;10.062;2023-05-20T02:35:14;0.20;;;0.20;;
17784;SDS011;9016;53.582;10.062;2023-05-20T02:37:42;0.30;;;0.30;;
17784;SDS011;9016;53.582;10.062;2023-05-20T02:40:11;0.30;;;0.30;;
17784;SDS011;9016;53.582;10.062;2023-05-20T02:42:39;0.20;;;0.20;;
17784;SDS011;9016;53.582;10.062;2023-05-20T02:45:08;0.20;;;0.20;;
17784;SDS011;9016;53.582;10.062;2023-05-20T02:47:38;0.40;;;0.40;;
17784;SDS011;9016;53.582;10.062;2023-05-20T02:50:06;0.30;;;0.30;;
17784;SDS011;9016;53.582;10.062;2023-05-20T02:52:35;0.20;;;0.20;;
17784;SDS011;9016;53.582;10.062;2023-05-20T02:55:03;0.20;;;0.20;;
17784;SDS011;9016;53.582;10.062;2023-05-20T02:57:33;0.30;;;0.30;;
17784;SDS011;9016;53.582;10.062;2023-05-20T03:00:04;0.20;;;0.20;;
17784;SDS011;9016;53.582;10.062;2023-05-20T03:02:33;0.20;;;0.20;;
17784;SDS011;9016;53.582;10.062;2023-05-20T03:05:03;0.23;;;0.23;;
17784;SDS011;9016;53.582;10.062;2023-05-20T03:07:32;0.20;;;0.20;;
17784;SDS011;9016;53.582;10.062;2023-05-20T03:10:02;0.30;;;0.30;;
17784;SDS011;9016;53.582;10.062;2023-05-20T03:12:32;0.30;;;0.30;;
17784;SDS011;9016;53.582;10.062;2023-05-20T03:15:00;0.30;;;0.30;;
17784;SDS011;9016;53.582;10.062;2023-05-20T03:17:31;0.20;;;0.20;;
17784;SDS011;9016;53.582;10.062;2023-05-20T03:19:59;0.30;;;0.30;;
17784;SDS011;9016;53.582;10.062;2023-05-20T03:22:30;0.20;;;0.20;;
17784;SDS011;9016;53.582;10.062;2023-05-20T03:24:58;0.20;;;0.20;;
17784;SDS011;9016;53.582;10.062;2023-05-20T03:27:27;0.20;;;0.20;;
17784;SDS011;9016;53.582;10.062;2023-05-20T03:29:56;0.20;;;0.20;;
17784;SDS011;9016;53.582;10.062;2023-05-20T03:32:24;0.20;;;0.20;;
17784;SDS011;9016;53.582;10.062;2023-05-20T03:34:53;0.20;;;0.20;;
17784;SDS011;9016;53.582;10.062;2023-05-20T03:37:23;0.20;;;0.20;;
17784;SDS011;9016;53.582;10.062;2023-05-20T03:39:52;0.30;;;0.30;;
17784;SDS011;9016;53.582;10.062;2023-05-20T03:42:21;0.20;;;0.20;;
17784;SDS011;9016;53.582;10.062;2023-05-20T03:44:49;0.30;;;0.30;;
17784;SDS011;9016;53.582;10.062;2023-05-20T03:47:17;0.30;;;0.30;;
17784;SDS011;9016;53.582;10.062;2023-05-20T03:49:45;0.20;;;0.20;;
17784;SDS011;9016;53.582;10.062;2023-05-20T03:52:13;0.30;;;0.30;;
17784;SDS011;9016;53.582;10.062;2023-05-20T03:54:40;0.20;;;0.20;;
17784;SDS011;9016;53.582;10.062;2023-05-20T03:57:10;0.20;;;0.20;;
17784;SDS011;9016;53.582;10.062;2023-05-20T03:59:38;0.20;;;0.20;;
17784;SDS011;9016;53.582;10.062;2023-05-20T04:02:06;0.20;;;0.20;;
17784;SDS011;9016;53.582;10.062;2023-05-20T04:04:35;0.20;;;0.20;;
17784;SDS011;9016;53.582;10.062;2023-05-20T04:07:03;0.30;;;0.30;;
17784;SDS011;9016;53.582;10.062;2023-05-20T04:09:33;0.40;;;0.40;;
17784;SDS011;9016;53.582;10.062;2023-05-20T04:12:01;0.30;;;0.30;;
17784;SDS011;9016;53.582;10.062;2023-05-20T04:14:30;0.20;;;0.20;;
17784;SDS011;9016;53.582;10.062;2023-05-20T04:17:00;0.20;;;0.20;;
17784;SDS011;9016;53.582;10.062;2023-05-20T04:19:29;0.30;;;0.30;;
17784;SDS011;9016;53.582;10.062;2023-05-20T04:21:57;0.20;;;0.20;;
17784;SDS011;9016;53.582;10.062;2023-05-20T04:24:25;0.20;;;0.20;;
17784;SDS011;9016;53.582;10.062;2023-05-20T04:26:53;0.20;;;0.20;;
17784;SDS011;9016;53.582;10.062;2023-05-20T04:29:21;0.20;;;0.20;;
17784;SDS011;9016;53.582;10.062;2023-05-20T04:31:52;0.20;;;0.20;;
17784;SDS011;9016;53.582;10.062;2023-05-20T04:34:24;0.20;;;0.20;;
17784;SDS011;9016;53.582;10.062;2023-05-20T04:36:52;0.30;;;0.30;;
17784;SDS011;9016;53.582;10.062;2023-05-20T04:39:20;0.20;;;0.20;;
17784;SDS011;9016;53.582;10.062;2023-05-20T04:41:48;0.30;;;0.30;;
17784;SDS011;9016;53.582;10.062;2023-05-20T04:44:19;0.30;;;0.30;;
17784;SDS011;9016;53.582;10.062;2023-05-20T04:46:47;0.30;;;0.30;;
17784;SDS011;9016;53.582;10.062;2023-05-20T04:49:17;0.30;;;0.30;;
17784;SDS011;9016;53.582;10.062;2023-05-20T04:51:45;0.20;;;0.20;;
17784;SDS011;9016;53.582;10.062;2023-05-20T04:54:15;0.20;;;0.20;;
17784;SDS011;9016;53.582;10.062;2023-05-20T04:56:45;0.20;;;0.20;;
17784;SDS011;9016;53.582;10.062;2023-05-20T04:59:13;0.20;;;0.20;;
17784;SDS011;9016;53.582;10.062;2023-05-20T05:01:41;0.20;;;0.20;;
17784;SDS011;9016;53.582;10.062;2023-05-20T05:04:09;0.30;;;0.30;;
17784;SDS011;9016;53.582;10.062;2023-05-20T05:06:39;0.30;;;0.30;;
17784;SDS011;9016;53.582;10.062;2023-05-20T05:09:07;0.20;;;0.20;;
17784;SDS011;9016;53.582;10.062;2023-05-20T05:11:35;0.20;;;0.20;;
17784;SDS011;9016;53.582;10.062;2023-05-20T05:14:03;0.20;;;0.20;;
17784;SDS011;9016;53.582;10.062;2023-05-20T05:16:31;0.30;;;0.30;;
17784;SDS011;9016;53.582;10.062;2023-05-20T05:18:59;0.20;;;0.20;;
17784;SDS011;9016;53.582;10.062;2023-05-20T05:21:27;0.20;;;0.20;;
17784;SDS011;9016;53.582;10.062;2023-05-20T05:23:56;0.30;;;0.30;;
17784;SDS011;9016;53.582;10.062;2023-05-20T05:26:24;0.30;;;0.30;;
17784;SDS011;9016;53.582;10.062;2023-05-20T05:28:53;0.20;;;0.20;;
17784;SDS011;9016;53.582;10.062;2023-05-20T05:31:21;0.20;;;0.20;;
17784;SDS011;9016;53.582;10.062;2023-05-20T05:33:49;0.20;;;0.20;;
17784;SDS011;9016;53.582;10.062;2023-05-20T05:36:17;0.20;;;0.20;;
17784;SDS011;9016;53.582;10.062;2023-05-20T05:38:45;0.20;;;0.20;;
17784;SDS011;9016;53.582;10.062;2023-05-20T05:41:14;0.30;;;0.30;;
17784;SDS011;9016;53.582;10.062;2023-05-20T05:43:42;0.30;;;0.30;;
17784;SDS011;9016;53.582;10.062;2023-05-20T05:46:10;0.27;;;0.27;;
17784;SDS011;9016;53.582;10.062;2023-05-20T05:48:38;0.30;;;0.30;;
17784;SDS011;9016;53.582;10.062;2023-05-20T05:51:07;0.30;;;0.30;;
17784;SDS011;9016;53.582;10.062;2023-05-20T05:53:36;0.30;;;0.30;;
17784;SDS011;9016;53.582;10.062;2023-05-20T05:56:04;0.30;;;0.30;;
17784;SDS011;9016;53.582;10.062;2023-05-20T05:58:34;0.20;;;0.20;;
17784;SDS011;9016;53.582;10.062;2023-05-20T06:01:02;0.30;;;0.30;;
17784;SDS011;9016;53.582;10.062;2023-05-20T06:03:30;0.30;;;0.30;;
17784;SDS011;9016;53.582;10.062;2023-05-20T06:06:00;0.30;;;0.30;;
17784;SDS011;9016;53.582;10.062;2023-05-20T06:08:28;0.30;;;0.30;;
17784;SDS011;9016;53.582;10.062;2023-05-20T06:10:57;0.33;;;0.33;;
17784;SDS011;9016;53.582;10.062;2023-05-20T06:13:25;0.20;;;0.20;;
17784;SDS011;9016;53.582;10.062;2023-05-20T06:15:54;0.30;;;0.30;;
17784;SDS011;9016;53.582;10.062;2023-05-20T06:18:22;0.30;;;0.30;;
17784;SDS011;9016;53.582;10.062;2023-05-20T06:20:53;0.30;;;0.30;;
17784;SDS011;9016;53.582;10.062;2023-05-20T06:23:22;0.20;;;0.20;;
17784;SDS011;9016;53.582;10.062;2023-05-20T06:25:50;0.30;;;0.30;;
17784;SDS011;9016;53.582;10.062;2023-05-20T06:28:19;0.30;;;0.30;;
17784;SDS011;9016;53.582;10.062;2023-05-20T06:30:47;0.30;;;0.30;;
17784;SDS011;9016;53.582;10.062;2023-05-20T06:33:17;0.30;;;0.30;;
17784;SDS011;9016;53.582;10.062;2023-05-20T06:35:45;0.40;;;0.40;;
17784;SDS011;9016;53.582;10.062;2023-05-20T06:38:14;0.40;;;0.40;;
17784;SDS011;9016;53.582;10.062;2023-05-20T06:40:42;0.40;;;0.40;;
17784;SDS011;9016;53.582;10.062;2023-05-20T06:43:10;0.50;;;0.50;;
17784;SDS011;9016;53.582;10.062;2023-05-20T06:45:39;0.50;;;0.50;;
17784;SDS011;9016;53.582;10.062;2023-05-20T06:48:07;0.60;;;0.60;;
17784;SDS011;9016;53.582;10.062;2023-05-20T06:50:36;0.60;;;0.60;;
17784;SDS011;9016;53.582;10.062;2023-05-20T06:53:05;0.60;;;0.60;;
17784;SDS011;9016;53.582;10.062;2023-05-20T06:55:33;0.60;;;0.60;;
17784;SDS011;9016;53.582;10.062;2023-05-20T06:58:01;0.60;;;0.60;;
17784;SDS011;9016;53.582;10.062;2023-05-20T07:00:29;0.60;;;0.60;;
17784;SDS011;9016;53.582;10.062;2023-05-20T07:02:57;0.60;;;0.60;;
17784;SDS011;9016;53.582;10.062;2023-05-20T07:05:26;0.60;;;0.60;;
17784;SDS011;9016;53.582;10.062;2023-05-20T07:07:56;0.60;;;0.60;;
17784;SDS011;9016;53.582;10.062;2023-05-20T07:10:25;0.60;;;0.60;;
17784;SDS011;9016;53.582;10.062;2023-05-20T07:12:53;0.70;;;0.70;;
17784;SDS011;9016;53.582;10.062;2023-05-20T07:15:21;0.55;;;0.55;;
17784;SDS011;9016;53.582;10.062;2023-05-20T07:17:49;0.50;;;0.50;;
17784;SDS011;9016;53.582;10.062;2023-05-20T07:20:17;0.50;;;0.50;;
17784;SDS011;9016;53.582;10.062;2023-05-20T07:22:45;0.60;;;0.60;;
17784;SDS011;9016;53.582;10.062;2023-05-20T07:25:17;0.60;;;0.60;;
17784;SDS011;9016;53.582;10.062;2023-05-20T07:27:45;0.60;;;0.60;;
17784;SDS011;9016;53.582;10.062;2023-05-20T07:30:13;0.60;;;0.60;;
17784;SDS011;9016;53.582;10.062;2023-05-20T07:32:41;0.50;;;0.50;;
17784;SDS011;9016;53.582;10.062;2023-05-20T07:35:09;0.60;;;0.60;;
17784;SDS011;9016;53.582;10.062;2023-05-20T07:37:38;0.50;;;0.50;;
17784;SDS011;9016;53.582;10.062;2023-05-20T07:40:06;0.50;;;0.50;;
17784;SDS011;9016;53.582;10.062;2023-05-20T07:42:39;0.50;;;0.50;;
17784;SDS011;9016;53.582;10.062;2023-05-20T07:45:07;0.57;;;0.57;;
17784;SDS011;9016;53.582;10.062;2023-05-20T07:47:36;0.60;;;0.60;;
17784;SDS011;9016;53.582;10.062;2023-05-20T07:50:05;0.60;;;0.60;;
17784;SDS011;9016;53.582;10.062;2023-05-20T07:52:33;0.60;;;0.60;;
17784;SDS011;9016;53.582;10.062;2023-05-20T07:55:21;0.60;;;0.60;;
17784;SDS011;9016;53.582;10.062;2023-05-20T07:57:51;0.60;;;0.60;;
17784;SDS011;9016;53.582;10.062;2023-05-20T08:00:19;0.60;;;0.60;;
17784;SDS011;9016;53.582;10.062;2023-05-20T08:02:47;0.65;;;0.65;;
17784;SDS011;9016;53.582;10.062;2023-05-20T08:05:16;0.30;;;0.30;;
17784;SDS011;9016;53.582;10.062;2023-05-20T08:07:44;0.45;;;0.45;;
17784;SDS011;9016;53.582;10.062;2023-05-20T08:10:12;0.70;;;0.70;;
17784;SDS011;9016;53.582;10.062;2023-05-20T08:12:40;0.70;;;0.70;;
17784;SDS011;9016;53.582;10.062;2023-05-20T08:15:10;0.70;;;0.70;;
17784;SDS011;9016;53.582;10.062;2023-05-20T08:17:38;0.68;;;0.68;;
17784;SDS011;9016;53.582;10.062;2023-05-20T08:20:07;0.70;;;0.70;;
17784;SDS011;9016;53.582;10.062;2023-05-20T08:22:36;0.47;;;0.47;;
17784;SDS011;9016;53.582;10.062;2023-05-20T08:25:06;0.40;;;0.40;;
17784;SDS011;9016;53.582;10.062;2023-05-20T08:27:36;0.35;;;0.35;;
17784;SDS011;9016;53.582;10.062;2023-05-20T08:30:05;0.70;;;0.70;;
17784;SDS011;9016;53.582;10.062;2023-05-20T08:32:36;0.70;;;0.70;;
17784;SDS011;9016;53.582;10.062;2023-05-20T08:35:05;0.60;;;0.60;;
17784;SDS011;9016;53.582;10.062;2023-05-20T08:37:34;0.60;;;0.60;;
17784;SDS011;9016;53.582;10.062;2023-05-20T08:40:02;0.40;;;0.40;;
17784;SDS011;9016;53.582;10.062;2023-05-20T08:42:32;0.60;;;0.60;;
17784;SDS011;9016;53.582;10.062;2023-05-20T08:45:00;0.63;;;0.63;;
17784;SDS011;9016;53.582;10.062;2023-05-20T08:47:30;0.77;;;0.77;;
17784;SDS011;9016;53.582;10.062;2023-05-20T08:50:00;0.60;;;0.60;;
17784;SDS011;9016;53.582;10.062;2023-05-20T08:52:28;0.60;;;0.60;;
17784;SDS011;9016;53.582;10.062;2023-05-20T08:55:01;0.40;;;0.40;;
17784;SDS011;9016;53.582;10.062;2023-05-20T08:57:29;0.70;;;0.70;;
17784;SDS011;9016;53.582;10.062;2023-05-20T08:59:59;0.30;;;0.30;;
17784;SDS011;9016;53.582;10.062;2023-05-20T09:02:27;0.30;;;0.30;;
17784;SDS011;9016;53.582;10.062;2023-05-20T09:04:55;0.40;;;0.40;;
17784;SDS011;9016;53.582;10.062;2023-05-20T09:07:27;0.40;;;0.40;;
17784;SDS011;9016;53.582;10.062;2023-05-20T09:09:56;0.60;;;0.60;;
17784;SDS011;9016;53.582;10.062;2023-05-20T09:12:25;0.40;;;0.40;;
17784;SDS011;9016;53.582;10.062;2023-05-20T09:14:53;0.47;;;0.47;;
17784;SDS011;9016;53.582;10.062;2023-05-20T09:17:21;0.40;;;0.40;;
17784;SDS011;9016;53.582;10.062;2023-05-20T09:19:51;0.30;;;0.30;;
17784;SDS011;9016;53.582;10.062;2023-05-20T09:22:22;0.40;;;0.40;;
17784;SDS011;9016;53.582;10.062;2023-05-20T09:24:53;0.70;;;0.70;;
17784;SDS011;9016;53.582;10.062;2023-05-20T09:27:21;0.30;;;0.30;;
17784;SDS011;9016;53.582;10.062;2023-05-20T09:29:50;0.30;;;0.30;;
17784;SDS011;9016;53.582;10.062;2023-05-20T09:32:19;0.30;;;0.30;;
17784;SDS011;9016;53.582;10.062;2023-05-20T09:34:49;0.30;;;0.30;;
17784;SDS011;9016;53.582;10.062;2023-05-20T09:37:17;0.30;;;0.30;;
17784;SDS011;9016;53.582;10.062;2023-05-20T09:39:50;0.30;;;0.30;;
17784;SDS011;9016;53.582;10.062;2023-05-20T09:42:25;0.30;;;0.30;;
17784;SDS011;9016;53.582;10.062;2023-05-20T09:44:57;0.30;;;0.30;;
17784;SDS011;9016;53.582;10.062;2023-05-20T09:47:27;0.30;;;0.30;;
17784;SDS011;9016;53.582;10.062;2023-05-20T09:49:55;0.30;;;0.30;;
17784;SDS011;9016;53.582;10.062;2023-05-20T09:52:25;0.30;;;0.30;;
17784;SDS011;9016;53.582;10.062;2023-05-20T09:54:55;0.30;;;0.30;;
17784;SDS011;9016;53.582;10.062;2023-05-20T09:57:27;0.30;;;0.30;;
17784;SDS011;9016;53.582;10.062;2023-05-20T09:59:57;0.30;;;0.30;;
17784;SDS011;9016;53.582;10.062;2023-05-20T10:02:25;0.30;;;0.30;;
17784;SDS011;9016;53.582;10.062;2023-05-20T10:04:54;0.30;;;0.30;;
17784;SDS011;9016;53.582;10.062;2023-05-20T10:07:30;0.32;;;0.32;;
17784;SDS011;9016;53.582;10.062;2023-05-20T10:10:25;0.30;;;0.30;;
17784;SDS011;9016;53.582;10.062;2023-05-20T10:13:03;0.30;;;0.30;;
17784;SDS011;9016;53.582;10.062;2023-05-20T10:15:42;0.30;;;0.30;;
17784;SDS011;9016;53.582;10.062;2023-05-20T10:21:59;0.40;;;0.40;;
17784;SDS011;9016;53.582;10.062;2023-05-20T10:24:29;0.30;;;0.30;;
17784;SDS011;9016;53.582;10.062;2023-05-20T10:27:00;0.30;;;0.30;;
17784;SDS011;9016;53.582;10.062;2023-05-20T10:29:40;0.30;;;0.30;;
17784;SDS011;9016;53.582;10.062;2023-05-20T10:32:10;0.40;;;0.40;;
17784;SDS011;9016;53.582;10.062;2023-05-20T10:34:45;0.40;;;0.40;;
17784;SDS011;9016;53.582;10.062;2023-05-20T10:37:23;0.30;;;0.30;;
17784;SDS011;9016;53.582;10.062;2023-05-20T10:40:04;0.30;;;0.30;;
17784;SDS011;9016;53.582;10.062;2023-05-20T10:42:35;0.30;;;0.30;;
17784;SDS011;9016;53.582;10.062;2023-05-20T10:45:03;0.38;;;0.38;;
17784;SDS011;9016;53.582;10.062;2023-05-20T10:47:32;0.38;;;0.38;;
17784;SDS011;9016;53.582;10.062;2023-05-20T10:50:01;0.30;;;0.30;;
17784;SDS011;9016;53.582;10.062;2023-05-20T10:52:31;0.30;;;0.30;;
17784;SDS011;9016;53.582;10.062;2023-05-20T10:55:00;0.40;;;0.40;;
17784;SDS011;9016;53.582;10.062;2023-05-20T10:57:30;0.30;;;0.30;;
17784;SDS011;9016;53.582;10.062;2023-05-20T11:00:03;0.45;;;0.45;;
17784;SDS011;9016;53.582;10.062;2023-05-20T11:02:32;0.30;;;0.30;;
17784;SDS011;9016;53.582;10.062;2023-05-20T11:05:02;0.30;;;0.30;;
17784;SDS011;9016;53.582;10.062;2023-05-20T11:07:32;0.30;;;0.30;;
17784;SDS011;9016;53.582;10.062;2023-05-20T11:10:00;0.30;;;0.30;;
17784;SDS011;9016;53.582;10.062;2023-05-20T11:12:29;0.30;;;0.30;;
17784;SDS011;9016;53.582;10.062;2023-05-20T11:15:00;0.30;;;0.30;;
17784;SDS011;9016;53.582;10.062;2023-05-20T11:17:29;0.35;;;0.35;;
17784;SDS011;9016;53.582;10.062;2023-05-20T11:19:57;0.30;;;0.30;;
17784;SDS011;9016;53.582;10.062;2023-05-20T11:22:26;0.30;;;0.30;;
17784;SDS011;9016;53.582;10.062;2023-05-20T11:24:55;0.30;;;0.30;;
17784;SDS011;9016;53.582;10.062;2023-05-20T11:27:23;0.30;;;0.30;;
17784;SDS011;9016;53.582;10.062;2023-05-20T11:29:52;0.30;;;0.30;;
17784;SDS011;9016;53.582;10.062;2023-05-20T11:32:22;0.30;;;0.30;;
17784;SDS011;9016;53.582;10.062;2023-05-20T11:34:50;0.38;;;0.38;;
17784;SDS011;9016;53.582;10.062;2023-05-20T11:37:20;0.30;;;0.30;;
17784;SDS011;9016;53.582;10.062;2023-05-20T11:40:01;0.30;;;0.30;;
17784;SDS011;9016;53.582;10.062;2023-05-20T11:42:33;0.30;;;0.30;;
17784;SDS011;9016;53.582;10.062;2023-05-20T11:45:01;0.30;;;0.30;;
17784;SDS011;9016;53.582;10.062;2023-05-20T11:47:31;0.32;;;0.32;;
17784;SDS011;9016;53.582;10.062;2023-05-20T11:49:59;0.30;;;0.30;;
17784;SDS011;9016;53.582;10.062;2023-05-20T11:52:28;0.30;;;0.30;;
17784;SDS011;9016;53.582;10.062;2023-05-20T11:54:56;0.30;;;0.30;;
17784;SDS011;9016;53.582;10.062;2023-05-20T11:57:24;0.30;;;0.30;;
17784;SDS011;9016;53.582;10.062;2023-05-20T11:59:52;0.20;;;0.20;;
17784;SDS011;9016;53.582;10.062;2023-05-20T12:02:22;0.30;;;0.30;;
17784;SDS011;9016;53.582;10.062;2023-05-20T12:04:51;0.30;;;0.30;;
17784;SDS011;9016;53.582;10.062;2023-05-20T12:07:23;0.30;;;0.30;;
17784;SDS011;9016;53.582;10.062;2023-05-20T12:09:52;0.30;;;0.30;;
17784;SDS011;9016;53.582;10.062;2023-05-20T12:12:20;0.30;;;0.30;;
17784;SDS011;9016;53.582;10.062;2023-05-20T12:14:50;0.30;;;0.30;;
17784;SDS011;9016;53.582;10.062;2023-05-20T12:17:19;0.30;;;0.30;;
17784;SDS011;9016;53.582;10.062;2023-05-20T12:19:47;0.30;;;0.30;;
17784;SDS011;9016;53.582;10.062;2023-05-20T12:22:16;0.30;;;0.30;;
17784;SDS011;9016;53.582;10.062;2023-05-20T12:24:44;0.40;;;0.40;;
17784;SDS011;9016;53.582;10.062;2023-05-20T12:27:12;0.30;;;0.30;;
17784;SDS011;9016;53.582;10.062;2023-05-20T12:29:41;0.30;;;0.30;;
17784;SDS011;9016;53.582;10.062;2023-05-20T12:32:09;0.30;;;0.30;;
17784;SDS011;9016;53.582;10.062;2023-05-20T12:34:38;0.30;;;0.30;;
17784;SDS011;9016;53.582;10.062;2023-05-20T12:37:06;0.30;;;0.30;;
17784;SDS011;9016;53.582;10.062;2023-05-20T12:39:35;0.30;;;0.30;;
17784;SDS011;9016;53.582;10.062;2023-05-20T12:42:03;0.40;;;0.40;;
17784;SDS011;9016;53.582;10.062;2023-05-20T12:44:31;0.30;;;0.30;;
17784;SDS011;9016;53.582;10.062;2023-05-20T12:47:00;0.30;;;0.30;;
17784;SDS011;9016;53.582;10.062;2023-05-20T12:49:28;0.30;;;0.30;;
17784;SDS011;9016;53.582;10.062;2023-05-20T12:51:56;0.30;;;0.30;;
17784;SDS011;9016;53.582;10.062;2023-05-20T12:54:28;0.30;;;0.30;;
17784;SDS011;9016;53.582;10.062;2023-05-20T12:56:58;0.30;;;0.30;;
17784;SDS011;9016;53.582;10.062;2023-05-20T12:59:26;0.30;;;0.30;;
17784;SDS011;9016;53.582;10.062;2023-05-20T13:01:54;0.30;;;0.30;;
17784;SDS011;9016;53.582;10.062;2023-05-20T13:04:23;0.30;;;0.30;;
17784;SDS011;9016;53.582;10.062;2023-05-20T13:06:51;0.30;;;0.30;;
17784;SDS011;9016;53.582;10.062;2023-05-20T13:09:20;0.35;;;0.35;;
17784;SDS011;9016;53.582;10.062;2023-05-20T13:11:50;0.30;;;0.30;;
17784;SDS011;9016;53.582;10.062;2023-05-20T13:14:21;0.28;;;0.28;;
17784;SDS011;9016;53.582;10.062;2023-05-20T13:16:49;0.30;;;0.30;;
17784;SDS011;9016;53.582;10.062;2023-05-20T13:19:20;0.30;;;0.30;;
17784;SDS011;9016;53.582;10.062;2023-05-20T13:21:48;0.30;;;0.30;;
17784;SDS011;9016;53.582;10.062;2023-05-20T13:24:21;0.30;;;0.30;;
17784;SDS011;9016;53.582;10.062;2023-05-20T13:26:49;0.30;;;0.30;;
17784;SDS011;9016;53.582;10.062;2023-05-20T13:29:17;0.30;;;0.30;;
17784;SDS011;9016;53.582;10.062;2023-05-20T13:31:47;0.32;;;0.32;;
17784;SDS011;9016;53.582;10.062;2023-05-20T13:34:15;0.30;;;0.30;;
17784;SDS011;9016;53.582;10.062;2023-05-20T13:36:43;0.20;;;0.20;;
17784;SDS011;9016;53.582;10.062;2023-05-20T13:39:11;0.20;;;0.20;;
17784;SDS011;9016;53.582;10.062;2023-05-20T13:41:39;0.30;;;0.30;;
17784;SDS011;9016;53.582;10.062;2023-05-20T13:44:07;0.30;;;0.30;;
17784;SDS011;9016;53.582;10.062;2023-05-20T13:46:35;0.30;;;0.30;;
17784;SDS011;9016;53.582;10.062;2023-05-20T13:49:05;0.30;;;0.30;;
17784;SDS011;9016;53.582;10.062;2023-05-20T13:51:33;0.30;;;0.30;;
17784;SDS011;9016;53.582;10.062;2023-05-20T13:54:02;0.30;;;0.30;;
17784;SDS011;9016;53.582;10.062;2023-05-20T13:56:31;0.30;;;0.30;;
17784;SDS011;9016;53.582;10.062;2023-05-20T13:59:00;0.30;;;0.30;;
17784;SDS011;9016;53.582;10.062;2023-05-20T14:01:29;0.30;;;0.30;;
17784;SDS011;9016;53.582;10.062;2023-05-20T14:03:58;0.30;;;0.30;;
17784;SDS011;9016;53.582;10.062;2023-05-20T14:06:27;0.30;;;0.30;;
17784;SDS011;9016;53.582;10.062;2023-05-20T14:08:57;0.30;;;0.30;;
17784;SDS011;9016;53.582;10.062;2023-05-20T14:11:25;0.30;;;0.30;;
17784;SDS011;9016;53.582;10.062;2023-05-20T14:13:56;0.20;;;0.20;;
17784;SDS011;9016;53.582;10.062;2023-05-20T14:16:24;0.35;;;0.35;;
17784;SDS011;9016;53.582;10.062;2023-05-20T14:18:54;0.30;;;0.30;;
17784;SDS011;9016;53.582;10.062;2023-05-20T14:21:22;0.30;;;0.30;;
17784;SDS011;9016;53.582;10.062;2023-05-20T14:23:51;0.30;;;0.30;;
17784;SDS011;9016;53.582;10.062;2023-05-20T14:26:22;0.30;;;0.30;;
17784;SDS011;9016;53.582;10.062;2023-05-20T14:28:52;0.30;;;0.30;;
17784;SDS011;9016;53.582;10.062;2023-05-20T14:31:20;0.30;;;0.30;;
17784;SDS011;9016;53.582;10.062;2023-05-20T14:33:49;0.30;;;0.30;;
17784;SDS011;9016;53.582;10.062;2023-05-20T14:36:17;0.30;;;0.30;;
17784;SDS011;9016;53.582;10.062;2023-05-20T14:38:45;0.30;;;0.30;;
17784;SDS011;9016;53.582;10.062;2023-05-20T14:41:16;0.30;;;0.30;;
17784;SDS011;9016;53.582;10.062;2023-05-20T14:43:44;0.30;;;0.30;;
17784;SDS011;9016;53.582;10.062;2023-05-20T14:46:12;0.20;;;0.20;;
17784;SDS011;9016;53.582;10.062;2023-05-20T14:48:42;0.30;;;0.30;;
17784;SDS011;9016;53.582;10.062;2023-05-20T14:51:10;0.30;;;0.30;;
17784;SDS011;9016;53.582;10.062;2023-05-20T14:53:39;0.30;;;0.30;;
17784;SDS011;9016;53.582;10.062;2023-05-20T14:56:07;0.20;;;0.20;;
17784;SDS011;9016;53.582;10.062;2023-05-20T14:58:37;0.30;;;0.30;;
17784;SDS011;9016;53.582;10.062;2023-05-20T15:01:06;0.20;;;0.20;;
17784;SDS011;9016;53.582;10.062;2023-05-20T15:03:34;0.20;;;0.20;;